Time;durP1;ratioP1;P1;durP2;ratioP2;P2;SDS_P1;SDS_P2;PMS_P1;PMS_P2;Temp;Humidity;BMP_temperature;BMP_pressure;BME280_temperature;BME280_humidity;BME280_pressure;Samples;Min_cycle;Max_cycle;Signal;HPM_P1;HPM_P2
2023/05/17 00:01:40;;;;;;;3.78;1.15;;;17.40;66.90;;;;;;10233012;28;20581;-54
2023/05/17 00:06:42;;;;;;;3.00;1.00;;;17.30;66.70;;;;;;10249978;28;20352;-54
2023/05/17 00:11:42;;;;;;;2.95;1.30;;;17.40;66.80;;;;;;10232172;28;20502;-53
2023/05/17 00:16:43;;;;;;;2.92;1.42;;;17.30;66.80;;;;;;10249626;28;20110;-53
2023/05/17 00:21:44;;;;;;;4.45;1.67;;;17.30;67.00;;;;;;10232218;29;20056;-53
2023/05/17 00:26:45;;;;;;;2.83;1.23;;;17.30;66.90;;;;;;10231983;29;20368;-54
2023/05/17 00:31:45;;;;;;;4.53;1.77;;;17.30;66.90;;;;;;10249086;28;20058;-54
2023/05/17 00:36:46;;;;;;;2.50;1.77;;;17.30;66.90;;;;;;10238964;28;20711;-54
2023/05/17 00:41:47;;;;;;;2.83;1.17;;;17.30;66.80;;;;;;10215205;28;20530;-54
2023/05/17 00:46:49;;;;;;;3.15;1.05;;;17.30;66.90;;;;;;10248494;29;20050;-52
2023/05/17 00:51:50;;;;;;;2.13;1.30;;;17.30;66.40;;;;;;10266968;28;20030;-54
2023/05/17 00:56:52;;;;;;;3.35;1.25;;;17.20;66.50;;;;;;10288230;28;20023;-54
2023/05/17 01:01:53;;;;;;;3.28;1.45;;;17.20;66.30;;;;;;10302925;28;20019;-55
2023/05/17 01:06:54;;;;;;;3.88;1.80;;;17.20;66.50;;;;;;10286394;28;20470;-53
2023/05/17 01:11:55;;;;;;;3.35;2.28;;;17.20;66.60;;;;;;10265673;28;20030;-54
2023/05/17 01:17:03;;;;;;;3.33;1.50;;;17.20;66.60;;;;;;10229990;29;20510;-56
2023/05/17 01:22:31;;;;;;;2.38;1.23;;;17.20;66.50;;;;;;10214176;28;20035;-53
2023/05/17 01:27:33;;;;;;;2.92;1.10;;;17.20;66.50;;;;;;10246907;28;20034;-54
2023/05/17 01:32:34;;;;;;;2.67;1.83;;;17.20;66.70;;;;;;10247063;28;20085;-55
2023/05/17 01:37:35;;;;;;;2.40;1.50;;;17.10;66.60;;;;;;10280054;28;20019;-53
2023/05/17 01:42:40;;;;;;;2.30;1.40;;;17.10;66.70;;;;;;10244421;29;20110;-53
2023/05/17 01:48:04;;;;;;;4.20;1.40;;;17.20;66.60;;;;;;10240144;28;20031;-53
2023/05/17 01:53:16;;;;;;;3.90;1.58;;;17.10;66.50;;;;;;10258187;28;20023;-54
2023/05/17 01:58:21;;;;;;;4.03;1.33;;;17.10;66.60;;;;;;10229462;29;20070;-54
2023/05/17 02:03:22;;;;;;;3.30;1.42;;;17.10;66.50;;;;;;10228833;29;20034;-54
2023/05/17 02:08:23;;;;;;;5.97;1.95;;;17.10;66.50;;;;;;10228105;28;20114;-54
2023/05/17 02:13:24;;;;;;;3.90;1.48;;;17.10;66.60;;;;;;10237530;28;20069;-54
2023/05/17 02:18:25;;;;;;;3.97;1.38;;;17.10;66.70;;;;;;10285036;28;20492;-54
2023/05/17 02:23:26;;;;;;;2.80;1.50;;;17.10;66.90;;;;;;10299659;28;20682;-54
2023/05/17 02:28:26;;;;;;;3.85;1.65;;;17.10;66.70;;;;;;10284710;28;20034;-54
2023/05/17 02:33:27;;;;;;;3.42;1.80;;;17.10;66.70;;;;;;10284850;28;20011;-54
2023/05/17 02:38:28;;;;;;;3.45;1.50;;;17.10;66.80;;;;;;10256577;28;20062;-54
2023/05/17 02:43:28;;;;;;;3.88;1.40;;;17.10;66.80;;;;;;10227334;29;20023;-54
2023/05/17 02:48:29;;;;;;;2.97;1.88;;;17.10;66.80;;;;;;10226845;29;20138;-55
2023/05/17 02:53:30;;;;;;;3.13;1.48;;;17.10;66.60;;;;;;10258731;28;20472;-54
2023/05/17 02:58:30;;;;;;;4.05;1.50;;;17.00;66.70;;;;;;10266327;28;20051;-53
2023/05/17 03:03:31;;;;;;;4.65;1.55;;;17.10;67.00;;;;;;10283842;28;20105;-54
2023/05/17 03:08:32;;;;;;;6.82;1.60;;;17.00;66.70;;;;;;10283266;28;20023;-54
2023/05/17 03:13:32;;;;;;;4.03;1.63;;;17.10;66.90;;;;;;10297978;28;20584;-54
2023/05/17 03:18:33;;;;;;;5.78;2.42;;;17.00;66.70;;;;;;10266137;28;20053;-54
2023/05/17 03:23:34;;;;;;;4.18;2.13;;;17.00;66.80;;;;;;10298243;28;20442;-53
2023/05/17 03:28:35;;;;;;;5.85;1.80;;;17.00;66.90;;;;;;10258217;28;20053;-53
2023/05/17 03:33:36;;;;;;;2.88;1.45;;;17.00;66.60;;;;;;10270145;28;20470;-53
2023/05/17 03:38:37;;;;;;;3.20;2.22;;;17.10;66.90;;;;;;10266510;28;20055;-54
2023/05/17 03:43:37;;;;;;;7.57;2.10;;;17.00;66.90;;;;;;10243304;28;20028;-54
2023/05/17 03:48:38;;;;;;;4.18;1.80;;;17.00;66.70;;;;;;10254663;28;20115;-54
2023/05/17 03:53:42;;;;;;;3.42;1.60;;;17.00;66.90;;;;;;10291024;28;20098;-54
2023/05/17 03:58:42;;;;;;;3.90;2.17;;;17.00;66.80;;;;;;10257127;28;20023;-54
2023/05/17 04:03:43;;;;;;;2.90;1.52;;;17.00;66.60;;;;;;10225552;28;20029;-53
2023/05/17 04:08:44;;;;;;;3.63;1.85;;;17.00;66.70;;;;;;10225420;28;20063;-54
2023/05/17 04:13:44;;;;;;;3.40;1.35;;;17.00;66.80;;;;;;10244604;28;20130;-53
2023/05/17 04:18:45;;;;;;;2.03;1.70;;;17.00;66.70;;;;;;10213314;29;20515;-55
2023/05/17 04:23:46;;;;;;;3.97;1.38;;;17.00;66.60;;;;;;10232401;29;20063;-53
2023/05/17 04:28:46;;;;;;;3.10;1.63;;;16.90;66.60;;;;;;10256024;28;20086;-54
2023/05/17 04:33:47;;;;;;;2.15;1.30;;;17.00;66.70;;;;;;10281791;28;20118;-53
2023/05/17 04:38:48;;;;;;;3.28;1.95;;;16.90;66.60;;;;;;10269297;28;20050;-54
2023/05/17 04:43:48;;;;;;;4.45;2.28;;;17.00;66.70;;;;;;10266974;28;20025;-53
2023/05/17 04:48:49;;;;;;;4.07;1.77;;;16.90;66.80;;;;;;10214882;28;20051;-54
2023/05/17 04:53:50;;;;;;;2.97;1.80;;;17.00;66.70;;;;;;10268110;28;20475;-47
2023/05/17 04:58:50;;;;;;;8.93;2.42;;;16.90;66.70;;;;;;10249331;28;20027;-53
2023/05/17 05:03:51;;;;;;;6.18;2.72;;;17.00;66.70;;;;;;10229258;29;20122;-55
2023/05/17 05:08:51;;;;;;;14.05;2.60;;;17.20;66.90;;;;;;10227701;28;20118;-53
2023/05/17 05:13:52;;;;;;;8.57;3.70;;;17.20;67.10;;;;;;10246096;28;20158;-47
2023/05/17 05:18:53;;;;;;;15.85;3.80;;;17.20;66.90;;;;;;10228253;28;20131;-52
2023/05/17 05:23:53;;;;;;;11.27;3.95;;;17.30;67.90;;;;;;10263528;28;20019;-54
2023/05/17 05:28:54;;;;;;;9.25;2.92;;;17.40;68.10;;;;;;10276947;28;20054;-55
2023/05/17 05:33:55;;;;;;;11.63;3.28;;;17.40;67.60;;;;;;10265770;28;20098;-53
2023/05/17 05:38:55;;;;;;;13.50;3.67;;;17.30;67.70;;;;;;10274514;28;20038;-55
2023/05/17 05:43:56;;;;;;;8.90;3.42;;;17.30;67.90;;;;;;10284209;28;20112;-53
2023/05/17 05:48:57;;;;;;;12.35;3.97;;;17.20;67.60;;;;;;10242703;28;20031;-54
2023/05/17 05:53:58;;;;;;;18.23;4.10;;;17.20;67.70;;;;;;10245123;28;20050;-52
2023/05/17 05:58:59;;;;;;;8.38;3.92;;;17.30;67.70;;;;;;10255990;28;20102;-55
2023/05/17 06:04:00;;;;;;;10.50;3.08;;;17.60;66.40;;;;;;10285863;28;20065;-51
2023/05/17 06:09:01;;;;;;;9.93;3.15;;;17.60;66.70;;;;;;10258593;28;20097;-50
2023/05/17 06:14:01;;;;;;;9.27;3.47;;;17.30;67.10;;;;;;10258857;28;20422;-54
2023/05/17 06:19:03;;;;;;;10.15;3.67;;;17.20;67.30;;;;;;10282194;28;20042;-53
2023/05/17 06:24:03;;;;;;;8.85;3.03;;;17.20;67.30;;;;;;10283454;28;20022;-54
2023/05/17 06:29:04;;;;;;;11.80;3.17;;;17.10;67.30;;;;;;10265927;28;20058;-54
2023/05/17 06:34:05;;;;;;;8.02;3.55;;;17.20;67.40;;;;;;10227936;28;20059;-55
2023/05/17 06:39:06;;;;;;;7.72;2.58;;;17.10;67.30;;;;;;10250154;28;20023;-57
2023/05/17 06:44:07;;;;;;;8.50;3.25;;;17.10;67.20;;;;;;10244606;28;20110;-52
2023/05/17 06:49:07;;;;;;;9.18;2.85;;;17.10;67.40;;;;;;10226909;28;20039;-54
2023/05/17 06:54:08;;;;;;;8.60;2.88;;;17.10;67.50;;;;;;10296934;28;20023;-54
2023/05/17 06:59:09;;;;;;;6.82;2.85;;;17.10;67.50;;;;;;10284352;28;20109;-54
2023/05/17 07:04:10;;;;;;;7.30;3.05;;;17.10;67.40;;;;;;10270090;28;20106;-52
2023/05/17 07:09:11;;;;;;;7.20;2.45;;;17.10;67.10;;;;;;10226611;28;20533;-54
2023/05/17 07:14:11;;;;;;;7.43;2.63;;;17.10;66.90;;;;;;10225251;28;20402;-54
2023/05/17 07:19:12;;;;;;;6.20;2.72;;;17.20;67.20;;;;;;10231328;28;20019;-54
2023/05/17 07:24:13;;;;;;;10.02;2.97;;;17.30;67.00;;;;;;10283608;28;20105;-52
2023/05/17 07:29:13;;;;;;;8.90;2.90;;;17.30;66.90;;;;;;10283031;28;20034;-52
2023/05/17 07:34:14;;;;;;;7.57;2.85;;;17.40;67.10;;;;;;10275113;28;20019;-53
2023/05/17 07:39:15;;;;;;;8.20;2.50;;;17.40;66.80;;;;;;10247391;28;20110;-53
2023/05/17 07:44:15;;;;;;;7.32;2.53;;;17.40;66.90;;;;;;10298349;28;20019;-50
2023/05/17 07:49:16;;;;;;;6.22;2.92;;;17.50;66.20;;;;;;10273542;28;20107;-54
2023/05/17 07:54:28;;;;;;;7.20;2.90;;;17.40;66.30;;;;;;10301046;28;20042;-53
2023/05/17 07:59:28;;;;;;;6.03;2.20;;;17.40;66.70;;;;;;10289324;28;20023;-55
2023/05/17 08:04:29;;;;;;;7.70;2.78;;;17.40;66.30;;;;;;10254508;28;20058;-48
2023/05/17 08:09:30;;;;;;;11.70;2.55;;;17.40;66.80;;;;;;10289359;28;20440;-51
2023/05/17 08:14:30;;;;;;;8.10;2.25;;;17.50;66.70;;;;;;10289825;28;20043;-50
2023/05/17 08:19:31;;;;;;;5.07;2.15;;;17.50;65.80;;;;;;10270171;28;20086;-53
2023/05/17 08:24:32;;;;;;;6.13;2.22;;;17.50;66.00;;;;;;10268931;28;20052;-54
2023/05/17 08:29:32;;;;;;;10.93;2.67;;;17.50;66.70;;;;;;10284187;28;20129;-52
2023/05/17 08:34:33;;;;;;;10.05;2.80;;;17.50;66.00;;;;;;10283996;28;20132;-53
2023/05/17 08:39:34;;;;;;;10.48;2.75;;;17.40;66.20;;;;;;10248010;28;20084;-54
2023/05/17 08:44:35;;;;;;;12.80;2.80;;;17.40;66.20;;;;;;10212566;29;20505;-52
2023/05/17 08:49:37;;;;;;;10.02;3.05;;;17.40;66.10;;;;;;10246237;28;20036;-54
2023/05/17 08:54:37;;;;;;;8.32;2.30;;;17.40;66.00;;;;;;10301016;28;20508;-53
2023/05/17 08:59:38;;;;;;;5.32;2.13;;;17.40;65.80;;;;;;10286259;28;20068;-53
2023/05/17 09:04:39;;;;;;;7.28;2.03;;;17.40;65.80;;;;;;10267509;28;20019;-54
2023/05/17 09:09:40;;;;;;;8.30;3.00;;;17.40;65.90;;;;;;10299960;28;20039;-53
2023/05/17 09:14:41;;;;;;;6.05;2.10;;;17.40;65.80;;;;;;10285548;28;20074;-53
2023/05/17 09:19:47;;;;;;;5.82;1.75;;;17.40;65.90;;;;;;10293087;28;20114;-56
2023/05/17 09:24:48;;;;;;;7.10;1.77;;;17.40;65.50;;;;;;10227995;28;20052;-52
2023/05/17 09:29:49;;;;;;;11.57;2.28;;;17.50;65.70;;;;;;10227454;28;20055;-53
2023/05/17 09:34:50;;;;;;;4.88;2.00;;;17.50;65.70;;;;;;10246214;28;20021;-54
2023/05/17 09:39:53;;;;;;;8.02;2.88;;;17.50;65.80;;;;;;10245370;28;20030;-53
2023/05/17 09:44:58;;;;;;;5.10;1.73;;;17.50;65.60;;;;;;10227304;28;20043;-54
2023/05/17 09:50:02;;;;;;;4.13;2.05;;;17.40;65.40;;;;;;10226966;29;20066;-53
2023/05/17 09:55:03;;;;;;;3.53;1.60;;;17.50;65.60;;;;;;10249418;28;20017;-53
2023/05/17 10:00:10;;;;;;;7.13;2.05;;;17.50;65.60;;;;;;10298780;28;20027;-54
2023/05/17 10:05:11;;;;;;;3.88;1.77;;;17.50;65.40;;;;;;10281279;28;20046;-52
2023/05/17 10:10:13;;;;;;;5.93;2.35;;;17.50;65.40;;;;;;10297960;28;20117;-54
2023/05/17 10:15:16;;;;;;;6.38;1.90;;;17.50;65.20;;;;;;10273160;28;20051;-52
2023/05/17 10:20:18;;;;;;;4.72;2.10;;;17.50;65.20;;;;;;10210045;28;20238;-53
2023/05/17 10:25:20;;;;;;;5.15;2.08;;;17.60;67.50;;;;;;10242973;29;20430;-51
2023/05/17 10:30:21;;;;;;;3.95;1.83;;;17.80;70.50;;;;;;10225436;28;20051;-53
2023/05/17 10:35:23;;;;;;;4.45;1.98;;;18.00;69.90;;;;;;10232170;28;20029;-54
2023/05/17 10:40:23;;;;;;;4.43;1.85;;;17.90;65.20;;;;;;10242326;29;20023;-53
2023/05/17 10:45:25;;;;;;;3.05;1.20;;;17.80;65.00;;;;;;10242081;29;20023;-53
2023/05/17 10:50:26;;;;;;;4.35;1.45;;;17.80;65.60;;;;;;10232426;28;20035;-54
2023/05/17 10:55:42;;;;;;;4.90;2.30;;;17.70;65.90;;;;;;10297666;28;20098;-54
2023/05/17 11:00:49;;;;;;;3.95;1.58;;;17.70;66.10;;;;;;10271548;28;20442;-53
2023/05/17 11:06:08;;;;;;;6.22;1.80;;;17.70;66.10;;;;;;10241827;28;20035;-53
2023/05/17 11:11:19;;;;;;;4.82;1.50;;;17.80;65.80;;;;;;10281518;28;20043;-53
2023/05/17 11:16:24;;;;;;;3.30;1.33;;;17.80;65.80;;;;;;10281392;28;20046;-53
2023/05/17 11:21:29;;;;;;;3.13;1.10;;;17.80;65.50;;;;;;10281324;28;20022;-54
2023/05/17 11:26:36;;;;;;;2.20;1.08;;;17.80;65.30;;;;;;10283858;28;20019;-53
2023/05/17 11:31:43;;;;;;;4.47;1.60;;;17.80;65.10;;;;;;10292153;28;20062;-51
2023/05/17 11:36:52;;;;;;;7.32;1.48;;;17.90;64.80;;;;;;10250345;28;20082;-52
2023/05/17 11:41:55;;;;;;;3.85;2.13;;;17.90;64.50;;;;;;10231649;29;20023;-52
2023/05/17 11:47:10;;;;;;;4.60;1.20;;;17.90;64.50;;;;;;10231748;28;20015;-53
2023/05/17 11:52:11;;;;;;;3.45;1.83;;;17.90;64.00;;;;;;10262804;28;20028;-52
2023/05/17 11:57:15;;;;;;;5.18;1.70;;;17.90;63.70;;;;;;10231506;28;20690;-53
2023/05/17 12:02:32;;;;;;;7.15;1.15;;;18.00;63.70;;;;;;10255142;28;20025;-52
2023/05/17 12:07:33;;;;;;;4.40;1.52;;;18.00;63.70;;;;;;10286407;28;20034;-52
2023/05/17 12:12:34;;;;;;;4.82;2.20;;;17.90;63.70;;;;;;10250236;28;20577;-53
2023/05/17 12:17:43;;;;;;;3.40;1.65;;;18.00;63.50;;;;;;10302810;28;20054;-53
2023/05/17 12:22:54;;;;;;;6.68;1.85;;;18.00;63.50;;;;;;10301288;28;20038;-54
2023/05/17 12:28:17;;;;;;;2.88;1.23;;;18.00;63.10;;;;;;10301542;28;20047;-52
2023/05/17 12:33:18;;;;;;;5.25;1.30;;;18.00;63.20;;;;;;10301336;28;20034;-52
2023/05/17 12:38:19;;;;;;;6.03;1.95;;;18.10;63.50;;;;;;10274217;28;20090;-52
2023/05/17 12:43:23;;;;;;;4.60;1.35;;;18.10;63.40;;;;;;10246499;28;20023;-56
2023/05/17 12:48:25;;;;;;;3.33;1.30;;;18.00;63.10;;;;;;10228840;28;20122;-53
2023/05/17 12:53:36;;;;;;;7.10;1.77;;;18.10;62.60;;;;;;10260808;28;20106;-50
2023/05/17 12:58:36;;;;;;;6.10;2.33;;;18.10;62.10;;;;;;10300876;28;20082;-51
2023/05/17 13:03:37;;;;;;;8.82;2.00;;;18.00;61.10;;;;;;10286375;28;20162;-53
2023/05/17 13:08:38;;;;;;;9.93;2.35;;;18.00;60.50;;;;;;10284375;28;20049;-53
2023/05/17 13:13:40;;;;;;;5.55;1.65;;;18.00;59.60;;;;;;10267788;28;20541;-50
2023/05/17 13:18:51;;;;;;;8.45;2.20;;;18.00;58.90;;;;;;10262049;28;20026;-47
2023/05/17 13:23:52;;;;;;;10.48;3.13;;;18.00;58.40;;;;;;10227775;28;20077;-54
2023/05/17 13:28:52;;;;;;;9.00;2.75;;;18.30;57.00;;;;;;10244838;28;20135;-53
2023/05/17 13:33:53;;;;;;;9.57;2.80;;;18.20;57.10;;;;;;10244896;28;20423;-53
2023/05/17 13:38:55;;;;;;;6.55;1.80;;;18.10;57.90;;;;;;10252070;28;20094;-53
2023/05/17 13:43:56;;;;;;;11.82;3.45;;;18.10;57.20;;;;;;10244476;28;20019;-52
2023/05/17 13:48:57;;;;;;;7.75;2.05;;;18.10;57.20;;;;;;10243581;28;20050;-51
2023/05/17 13:53:58;;;;;;;5.75;2.60;;;18.10;57.20;;;;;;10294818;28;20369;-54
2023/05/17 13:58:58;;;;;;;10.00;2.72;;;18.10;56.90;;;;;;10284068;28;20027;-52
2023/05/17 14:03:59;;;;;;;17.15;2.97;;;18.10;57.20;;;;;;10271003;28;20122;-54
2023/05/17 14:09:00;;;;;;;12.00;2.25;;;18.10;57.60;;;;;;10226693;28;20144;-50
2023/05/17 14:14:00;;;;;;;8.13;2.45;;;18.10;57.70;;;;;;10280879;28;20586;-53
2023/05/17 14:19:01;;;;;;;15.18;2.90;;;18.10;57.90;;;;;;10242868;29;20035;-54
2023/05/17 14:24:02;;;;;;;15.20;3.17;;;18.10;57.60;;;;;;10229649;28;20130;-54
2023/05/17 14:29:04;;;;;;;10.20;2.47;;;18.10;57.20;;;;;;10282639;28;20038;-54
2023/05/17 14:34:05;;;;;;;8.93;2.63;;;18.10;57.70;;;;;;10277996;28;20031;-52
2023/05/17 14:39:05;;;;;;;10.10;2.75;;;18.10;57.60;;;;;;10231784;28;20051;-50
2023/05/17 14:44:06;;;;;;;9.88;2.67;;;18.00;57.30;;;;;;10242042;29;20028;-53
2023/05/17 14:49:07;;;;;;;6.13;2.72;;;18.00;57.00;;;;;;10241421;28;20066;-54
2023/05/17 14:54:08;;;;;;;7.82;2.72;;;18.00;56.50;;;;;;10250504;28;20024;-52
2023/05/17 14:59:09;;;;;;;8.65;3.05;;;18.00;55.90;;;;;;10269031;28;20043;-54
2023/05/17 15:04:09;;;;;;;9.57;2.53;;;18.00;55.90;;;;;;10270264;28;20059;-52
2023/05/17 15:09:13;;;;;;;16.40;3.65;;;18.00;55.90;;;;;;10209459;28;20122;-52
2023/05/17 15:14:20;;;;;;;11.77;2.50;;;18.00;56.20;;;;;;10242559;28;20491;-53
2023/05/17 15:19:21;;;;;;;8.05;2.20;;;18.00;56.20;;;;;;10253502;28;20055;-53
2023/05/17 15:24:21;;;;;;;8.52;2.78;;;18.00;56.20;;;;;;10270044;28;20818;-51
2023/05/17 15:29:22;;;;;;;6.43;2.40;;;18.00;56.40;;;;;;10285127;28;20097;-53
2023/05/17 15:34:25;;;;;;;8.50;2.28;;;18.00;55.70;;;;;;10261319;28;20055;-55
2023/05/17 15:39:26;;;;;;;11.52;1.98;;;18.00;54.90;;;;;;10269525;28;20717;-54
2023/05/17 15:44:27;;;;;;;5.78;2.22;;;18.00;54.70;;;;;;10287041;28;20026;-56
2023/05/17 15:49:28;;;;;;;5.93;2.40;;;18.00;54.60;;;;;;10248605;28;20126;-53
2023/05/17 15:54:28;;;;;;;10.25;2.00;;;17.90;54.30;;;;;;10239588;28;20176;-52
2023/05/17 15:59:29;;;;;;;13.18;4.07;;;18.20;55.10;;;;;;10267889;28;20101;-53
2023/05/17 16:04:30;;;;;;;10.30;2.78;;;18.40;57.30;;;;;;10263683;28;20102;-54
2023/05/17 16:09:31;;;;;;;9.57;3.20;;;18.60;58.10;;;;;;10280955;28;20121;-48
2023/05/17 16:14:31;;;;;;;8.20;2.63;;;18.70;58.30;;;;;;10299132;28;20363;-55
2023/05/17 16:19:32;;;;;;;13.63;4.53;;;18.70;58.30;;;;;;10302870;28;20887;-55
2023/05/17 16:24:34;;;;;;;8.75;2.90;;;18.70;58.20;;;;;;10281691;28;20030;-51
2023/05/17 16:29:38;;;;;;;11.85;2.92;;;18.70;58.20;;;;;;10230326;29;20031;-54
2023/05/17 16:34:39;;;;;;;10.48;2.42;;;18.60;58.70;;;;;;10234877;28;20038;-53
2023/05/17 16:39:40;;;;;;;11.05;3.45;;;18.50;59.20;;;;;;10250586;28;20477;-54
2023/05/17 16:44:41;;;;;;;9.35;2.85;;;18.40;58.50;;;;;;10230008;28;20447;-55
2023/05/17 16:49:42;;;;;;;10.38;2.83;;;18.30;59.00;;;;;;10229532;28;20155;-55
2023/05/17 16:54:42;;;;;;;8.65;3.05;;;18.20;58.90;;;;;;10286170;28;20023;-54
2023/05/17 16:59:43;;;;;;;10.52;2.97;;;18.20;58.50;;;;;;10284495;28;20149;-55
2023/05/17 17:04:44;;;;;;;7.93;3.33;;;18.20;58.90;;;;;;10284869;28;20074;-54
2023/05/17 17:09:44;;;;;;;10.68;3.08;;;18.30;58.50;;;;;;10253286;28;20062;-53
2023/05/17 17:14:45;;;;;;;12.45;2.78;;;18.30;58.50;;;;;;10241749;29;20043;-52
2023/05/17 17:19:46;;;;;;;12.98;3.47;;;18.20;58.50;;;;;;10244131;28;20163;-53
2023/05/17 17:24:47;;;;;;;4.72;2.60;;;18.20;58.90;;;;;;10243552;28;20106;-53
2023/05/17 17:29:47;;;;;;;6.75;2.58;;;18.10;59.00;;;;;;10229045;28;20458;-53
2023/05/17 17:34:48;;;;;;;11.98;2.78;;;18.10;59.10;;;;;;10223459;28;20111;-54
2023/05/17 17:39:49;;;;;;;10.00;2.40;;;18.10;59.40;;;;;;10262676;28;20011;-53
2023/05/17 17:44:49;;;;;;;8.85;2.72;;;18.20;58.90;;;;;;10238883;28;20110;-52
2023/05/17 17:49:50;;;;;;;6.35;2.42;;;18.20;58.30;;;;;;10223325;28;20118;-48
2023/05/17 17:54:51;;;;;;;7.28;2.20;;;18.30;58.60;;;;;;10261353;28;20061;-53
2023/05/17 17:59:52;;;;;;;8.80;2.50;;;18.20;58.10;;;;;;10261155;28;20181;-53
2023/05/17 18:04:52;;;;;;;6.55;2.47;;;18.20;58.90;;;;;;10278495;28;20034;-52
2023/05/17 18:09:55;;;;;;;11.85;2.80;;;18.20;58.70;;;;;;10245734;28;20493;-53
2023/05/17 18:14:55;;;;;;;6.18;2.03;;;18.20;58.90;;;;;;10254370;28;20035;-53
2023/05/17 18:19:56;;;;;;;10.82;2.70;;;18.20;58.60;;;;;;10243845;28;20031;-54
2023/05/17 18:24:58;;;;;;;9.20;2.50;;;18.30;59.00;;;;;;10242634;28;20054;-53
2023/05/17 18:29:58;;;;;;;5.53;2.50;;;18.20;58.80;;;;;;10236279;28;20077;-52
2023/05/17 18:34:59;;;;;;;10.30;2.50;;;18.10;58.80;;;;;;10211632;28;20058;-53
2023/05/17 18:40:01;;;;;;;11.98;2.45;;;18.10;59.50;;;;;;10224856;28;20020;-54
2023/05/17 18:45:01;;;;;;;8.82;2.70;;;18.00;59.90;;;;;;10224764;28;20041;-52
2023/05/17 18:50:02;;;;;;;5.72;2.40;;;18.00;59.80;;;;;;10224344;28;20042;-54
2023/05/17 18:55:03;;;;;;;6.25;2.50;;;18.00;60.00;;;;;;10242191;29;20027;-54
2023/05/17 19:00:06;;;;;;;6.60;2.92;;;18.00;60.10;;;;;;10223960;28;20026;-54
2023/05/17 19:05:07;;;;;;;6.00;1.98;;;18.00;60.00;;;;;;10256314;28;20390;-53
2023/05/17 19:10:08;;;;;;;5.72;2.20;;;18.00;59.90;;;;;;10239661;28;20043;-53
2023/05/17 19:15:09;;;;;;;5.82;2.45;;;18.00;59.80;;;;;;10255760;28;20085;-53
2023/05/17 19:20:10;;;;;;;6.63;2.15;;;18.00;60.00;;;;;;10240385;28;20038;-52
2023/05/17 19:25:11;;;;;;;13.38;2.90;;;18.00;60.20;;;;;;10232253;28;20409;-53
2023/05/17 19:30:11;;;;;;;6.30;2.05;;;17.90;60.00;;;;;;10243305;28;20119;-54
2023/05/17 19:35:12;;;;;;;4.85;1.67;;;17.90;60.10;;;;;;10252845;28;20024;-53
2023/05/17 19:40:13;;;;;;;8.40;2.20;;;17.90;60.10;;;;;;10223500;29;20058;-53
2023/05/17 19:45:15;;;;;;;5.82;1.83;;;17.80;60.20;;;;;;10241065;28;20042;-52
2023/05/17 19:50:15;;;;;;;6.65;2.05;;;17.80;60.30;;;;;;10253643;28;20093;-53
2023/05/17 19:55:20;;;;;;;5.22;1.92;;;17.80;60.40;;;;;;10239468;28;20050;-53
2023/05/17 20:00:21;;;;;;;4.32;1.30;;;17.80;60.50;;;;;;10250799;29;20475;-54
2023/05/17 20:05:24;;;;;;;4.05;1.40;;;17.70;60.40;;;;;;10273353;28;20026;-53
2023/05/17 20:10:25;;;;;;;3.25;1.35;;;17.70;60.30;;;;;;10265470;28;20054;-51
2023/05/17 20:15:25;;;;;;;4.45;2.35;;;17.70;59.80;;;;;;10249759;28;20062;-53
2023/05/17 20:20:26;;;;;;;5.47;1.65;;;17.70;59.90;;;;;;10233077;29;20027;-54
2023/05/17 20:25:27;;;;;;;4.03;1.75;;;17.60;59.80;;;;;;10251575;28;20019;-52
2023/05/17 20:30:28;;;;;;;6.10;2.40;;;17.60;59.70;;;;;;10288150;28;20035;-53
2023/05/17 20:35:28;;;;;;;5.90;2.83;;;17.60;59.50;;;;;;10238846;28;20131;-53
2023/05/17 20:40:29;;;;;;;4.82;1.60;;;17.60;59.40;;;;;;10231979;28;20545;-52
2023/05/17 20:45:30;;;;;;;4.97;1.85;;;17.60;59.00;;;;;;10239100;28;20027;-54
2023/05/17 20:50:31;;;;;;;5.13;1.20;;;17.60;58.80;;;;;;10256328;28;20389;-52
2023/05/17 20:55:32;;;;;;;3.42;1.13;;;17.50;58.90;;;;;;10253142;28;20050;-54
2023/05/17 21:00:32;;;;;;;5.93;1.50;;;17.50;58.70;;;;;;10230298;28;20159;-53
2023/05/17 21:05:34;;;;;;;5.55;1.33;;;17.50;58.60;;;;;;10243608;28;20430;-53
2023/05/17 21:10:36;;;;;;;3.90;1.63;;;17.50;58.20;;;;;;10302500;28;20042;-54
2023/05/17 21:15:37;;;;;;;4.10;1.50;;;17.50;58.20;;;;;;10287448;28;20049;-54
2023/05/17 21:20:38;;;;;;;3.10;1.33;;;17.50;58.10;;;;;;10302639;28;20019;-52
2023/05/17 21:25:39;;;;;;;4.65;1.75;;;17.50;58.10;;;;;;10286149;28;20018;-53
2023/05/17 21:30:39;;;;;;;2.38;1.27;;;17.50;58.00;;;;;;10282542;28;20031;-53
2023/05/17 21:35:40;;;;;;;3.08;1.25;;;17.50;58.10;;;;;;10250648;28;20256;-54
2023/05/17 21:40:41;;;;;;;3.53;1.38;;;17.40;57.40;;;;;;10246883;28;20413;-54
2023/05/17 21:45:42;;;;;;;3.15;1.80;;;17.40;57.50;;;;;;10244680;28;20023;-54
2023/05/17 21:50:44;;;;;;;3.30;1.48;;;17.40;57.30;;;;;;10250547;28;20031;-53
2023/05/17 21:55:45;;;;;;;3.33;1.80;;;17.40;57.20;;;;;;10229057;28;20110;-53
2023/05/17 22:00:46;;;;;;;2.40;1.52;;;17.40;57.20;;;;;;10225924;29;20111;-53
2023/05/17 22:05:46;;;;;;;2.67;1.10;;;17.40;57.20;;;;;;10245898;28;20028;-55
2023/05/17 22:10:48;;;;;;;3.50;1.20;;;17.40;57.10;;;;;;10227258;28;20023;-53
2023/05/17 22:15:49;;;;;;;2.63;1.08;;;17.40;56.90;;;;;;10245463;28;20114;-53
2023/05/17 22:20:52;;;;;;;4.00;1.30;;;17.30;56.90;;;;;;10245115;28;20027;-53
2023/05/17 22:25:52;;;;;;;3.00;1.92;;;17.30;56.80;;;;;;10245341;28;20051;-54
2023/05/17 22:30:53;;;;;;;2.13;1.05;;;17.30;56.60;;;;;;10255056;28;20033;-53
2023/05/17 22:35:54;;;;;;;2.72;1.25;;;17.30;56.60;;;;;;10259791;28;20051;-53
2023/05/17 22:40:55;;;;;;;3.72;1.50;;;17.20;56.40;;;;;;10230559;28;20066;-54
2023/05/17 22:45:58;;;;;;;4.32;1.25;;;17.20;56.40;;;;;;10244348;29;20148;-54
2023/05/17 22:51:02;;;;;;;7.88;2.08;;;17.30;56.40;;;;;;10238375;28;20058;-52
2023/05/17 22:56:03;;;;;;;5.72;2.13;;;17.20;56.20;;;;;;10283839;28;20046;-54
2023/05/17 23:01:03;;;;;;;3.90;1.70;;;17.20;56.00;;;;;;10256320;28;20106;-53
2023/05/17 23:06:04;;;;;;;6.82;1.63;;;17.20;56.00;;;;;;10259719;28;20491;-54
2023/05/17 23:11:05;;;;;;;3.60;1.35;;;17.20;56.00;;;;;;10281639;28;20378;-53
2023/05/17 23:16:06;;;;;;;4.95;1.77;;;17.20;55.90;;;;;;10264717;28;20047;-53
2023/05/17 23:21:08;;;;;;;4.22;1.50;;;17.20;56.00;;;;;;10298805;28;20085;-53
2023/05/17 23:26:08;;;;;;;4.82;1.98;;;17.10;55.80;;;;;;10291747;28;20060;-52
2023/05/17 23:31:09;;;;;;;5.03;1.40;;;17.20;55.50;;;;;;10267987;28;20114;-53
2023/05/17 23:36:10;;;;;;;2.67;1.40;;;17.10;55.60;;;;;;10277493;28;20026;-51
2023/05/17 23:41:16;;;;;;;4.55;1.25;;;17.10;55.60;;;;;;10218206;28;20477;-53
2023/05/17 23:46:18;;;;;;;4.15;1.42;;;17.10;55.40;;;;;;10251358;28;20015;-54
2023/05/17 23:51:19;;;;;;;4.45;1.65;;;17.10;55.40;;;;;;10265521;28;20067;-52
2023/05/17 23:56:20;;;;;;;4.63;1.20;;;17.00;55.40;;;;;;10244579;28;20012;-53
